createdAt,value
2023-01-20T00:02:23.375Z,100715.22
2023-01-20T00:05:29.440Z,100725.46
2023-01-20T00:08:36.656Z,100733.82
2023-01-20T00:11:42.496Z,100729.12
2023-01-20T00:14:47.954Z,100728.63
2023-01-20T00:17:54.278Z,100732.56
2023-01-20T00:21:00.994Z,100735.48
2023-01-20T00:24:07.424Z,100726.36
2023-01-20T00:27:14.427Z,100723.12
2023-01-20T00:30:22.218Z,100735.87
2023-01-20T00:33:28.477Z,100725.49
2023-01-20T00:36:34.724Z,100728.55
2023-01-20T00:39:39.990Z,100739.03
2023-01-20T00:42:46.269Z,100741.62
2023-01-20T00:45:53.547Z,100747.89
2023-01-20T00:48:59.482Z,100745.17
2023-01-20T00:52:05.827Z,100743.95
2023-01-20T00:55:11.980Z,100761.41
2023-01-20T00:58:19.905Z,100763.98
2023-01-20T01:01:25.462Z,100754.34
2023-01-20T01:04:33.802Z,100764.86
2023-01-20T01:07:40.893Z,100764.20
2023-01-20T01:10:47.218Z,100773.22
2023-01-20T01:13:52.737Z,100771.12
2023-01-20T01:16:59.560Z,100769.05
2023-01-20T01:20:07.280Z,100763.12
2023-01-20T01:23:12.226Z,100774.12
2023-01-20T01:26:17.248Z,100779.08
2023-01-20T01:29:22.153Z,100782.28
2023-01-20T01:32:28.496Z,100787.23
2023-01-20T01:35:34.379Z,100778.55
2023-01-20T01:38:39.363Z,100781.66
2023-01-20T01:41:44.654Z,100784.66
2023-01-20T01:44:51.733Z,100785.91
2023-01-20T01:48:10.862Z,100784.48
2023-01-20T01:51:29.275Z,100783.12
2023-01-20T01:54:39.198Z,100784.09
2023-01-20T01:57:45.594Z,100783.74
2023-01-20T02:00:51.057Z,100785.73
2023-01-20T02:04:01.368Z,100782.31
2023-01-20T02:07:18.821Z,100787.29
2023-01-20T02:10:24.888Z,100775.09
2023-01-20T02:13:29.770Z,100789.55
2023-01-20T02:16:51.802Z,100779.09
2023-01-20T02:20:18.452Z,100777.66
2023-01-20T02:24:06.567Z,100771.70
2023-01-20T02:27:35.503Z,100776.58
2023-01-20T02:31:06.909Z,100772.25
2023-01-20T02:34:24.839Z,100768.94
2023-01-20T02:37:29.403Z,100768.94
2023-01-20T02:40:45.304Z,100765.52
2023-01-20T02:44:13.200Z,100785.42
2023-01-20T02:47:37.849Z,100787.68
2023-01-20T02:50:54.169Z,100793.03
2023-01-20T02:54:06.378Z,100793.30
2023-01-20T02:57:11.541Z,100790.25
2023-01-20T03:00:33.376Z,100804.84
2023-01-20T03:03:47.861Z,100788.09
2023-01-20T03:06:56.785Z,100793.41
2023-01-20T03:10:05.479Z,100792.31
2023-01-20T03:13:38.132Z,100790.25
2023-01-20T03:16:43.770Z,100796.16
2023-01-20T03:19:49.839Z,100805.80
2023-01-20T03:22:49.008Z,100804.19
2023-01-20T03:25:49.311Z,100811.75
2023-01-20T03:28:55.493Z,100816.44
2023-01-20T03:32:09.462Z,100818.66
2023-01-20T03:35:14.506Z,100812.50
2023-01-20T03:38:19.727Z,100803.75
2023-01-20T03:42:05.284Z,100803.53
2023-01-20T03:45:25.869Z,100807.34
2023-01-20T03:48:45.832Z,100816.13
2023-01-20T03:52:04.837Z,100815.88
2023-01-20T03:55:26.894Z,100824.50
2023-01-20T03:58:36.544Z,100821.17
2023-01-20T04:01:52.174Z,100833.25
2023-01-20T04:05:05.582Z,100832.63
2023-01-20T04:08:05.742Z,100847.42
2023-01-20T04:11:10.665Z,100862.83
2023-01-20T04:14:16.959Z,100864.05
2023-01-20T04:17:22.273Z,100866.28
2023-01-20T04:20:29.277Z,100864.53
2023-01-20T04:23:46.322Z,100879.36
2023-01-20T04:26:51.998Z,100891.05
2023-01-20T04:29:56.447Z,100889.21
2023-01-20T04:33:01.549Z,100898.58
2023-01-20T04:36:07.683Z,100895.73
2023-01-20T04:39:13.231Z,100904.27
2023-01-20T04:42:18.975Z,100914.98
2023-01-20T04:45:29.945Z,100910.82
2023-01-20T04:48:35.333Z,100908.59
2023-01-20T04:51:40.910Z,100916.27
2023-01-20T04:54:47.340Z,100906.30
2023-01-20T04:57:53.520Z,100905.32
2023-01-20T05:01:00.078Z,100910.61
2023-01-20T05:04:06.994Z,100917.77
2023-01-20T05:07:12.783Z,100924.55
2023-01-20T05:10:22.390Z,100917.91
2023-01-20T05:13:28.456Z,100930.72
2023-01-20T05:16:35.859Z,100925.55
2023-01-20T05:19:41.108Z,100931.97
2023-01-20T05:22:47.420Z,100930.35
2023-01-20T05:25:54.743Z,100932.95
2023-01-20T05:28:59.581Z,100928.37
2023-01-20T05:32:05.573Z,100935.67
2023-01-20T05:35:10.801Z,100932.95
2023-01-20T05:38:16.128Z,100936.51
2023-01-20T05:41:23.503Z,100947.86
2023-01-20T05:44:31.714Z,100939.34
2023-01-20T05:47:38.976Z,100946.12
2023-01-20T05:50:45.530Z,100940.70
2023-01-20T05:53:51.762Z,100953.28
2023-01-20T05:56:59.657Z,100955.48
2023-01-20T06:00:08.579Z,100959.55
2023-01-20T06:03:13.849Z,100964.12
2023-01-20T06:06:22.487Z,100968.31
2023-01-20T06:09:30.590Z,100969.67
2023-01-20T06:12:45.084Z,100963.73
2023-01-20T06:15:51.230Z,100958.10
2023-01-20T06:18:57.167Z,100956.36
2023-01-20T06:22:03.064Z,100950.06
2023-01-20T06:25:11.542Z,100943.19
2023-01-20T06:28:17.640Z,100942.55
2023-01-20T06:31:26.026Z,100939.22
2023-01-20T06:34:31.056Z,100947.25
2023-01-20T06:37:36.691Z,100942.67
2023-01-20T06:40:42.397Z,100941.71
2023-01-20T06:43:49.696Z,100943.55
2023-01-20T06:46:58.600Z,100942.05
2023-01-20T06:50:04.059Z,100951.31
2023-01-20T06:53:09.163Z,100955.14
2023-01-20T06:56:15.808Z,100961.40
2023-01-20T06:59:21.812Z,100959.92
2023-01-20T07:02:31.660Z,100962.63
2023-01-20T07:05:38.426Z,100961.27
2023-01-20T07:08:43.907Z,100961.27
2023-01-20T07:11:50.564Z,100965.98
2023-01-20T07:14:56.452Z,100977.42
2023-01-20T07:18:03.789Z,100980.13
2023-01-20T07:21:11.639Z,100982.85
2023-01-20T07:24:19.629Z,100980.64
2023-01-20T07:27:26.369Z,100977.91
2023-01-20T07:30:33.408Z,100983.46
2023-01-20T07:33:42.635Z,100989.37
2023-01-20T07:36:48.233Z,100982.61
2023-01-20T07:39:55.227Z,100986.66
2023-01-20T07:43:04.391Z,100981.73
2023-01-20T07:46:30.258Z,100994.92
2023-01-20T07:49:38.375Z,100994.77
2023-01-20T07:52:44.705Z,100994.77
2023-01-20T07:55:50.220Z,100988.96
2023-01-20T07:58:57.346Z,100991.20
2023-01-20T08:02:03.901Z,100983.51
2023-01-20T08:05:09.585Z,100990.29
2023-01-20T08:08:15.801Z,100996.56
2023-01-20T08:11:24.163Z,100999.41
2023-01-20T08:14:29.758Z,101001.47
2023-01-20T08:17:38.160Z,100994.30
2023-01-20T08:20:46.771Z,100989.22
2023-01-20T08:23:53.642Z,101002.31
2023-01-20T08:26:58.961Z,100994.25
2023-01-20T08:30:08.058Z,100995.48
2023-01-20T08:33:13.814Z,100996.91
2023-01-20T08:36:27.575Z,100994.05
2023-01-20T08:39:33.122Z,100988.00
2023-01-20T08:42:44.273Z,100988.97
2023-01-20T08:45:50.496Z,100987.20
2023-01-20T08:48:56.853Z,100986.99
2023-01-20T08:52:04.884Z,100988.28
2023-01-20T08:55:13.730Z,100988.09
2023-01-20T08:58:19.621Z,100986.71
2023-01-20T09:01:34.544Z,100985.75
2023-01-20T09:04:41.474Z,100980.47
2023-01-20T09:07:47.814Z,100984.27
2023-01-20T09:10:54.686Z,100980.53
2023-01-20T09:14:04.039Z,100970.27
2023-01-20T09:17:09.772Z,100979.05
2023-01-20T09:20:17.105Z,100972.11
2023-01-20T09:23:23.399Z,100974.71
2023-01-20T09:26:35.766Z,100976.86
2023-01-20T09:29:38.203Z,100974.87
2023-01-20T09:32:43.532Z,100975.84
2023-01-20T09:35:48.321Z,100986.84
2023-01-20T09:39:12.471Z,100987.05
2023-01-20T09:42:56.090Z,100999.89
2023-01-20T09:46:20.223Z,100995.75
2023-01-20T09:49:59.570Z,100986.36
2023-01-20T09:53:13.335Z,100987.20
2023-01-20T09:56:31.644Z,100984.91
2023-01-20T09:59:44.115Z,100982.61
2023-01-20T10:02:50.846Z,100980.89
2023-01-20T10:05:57.460Z,100986.59
2023-01-20T10:09:13.198Z,100986.27
2023-01-20T10:12:47.001Z,100987.91
2023-01-20T10:15:53.772Z,100980.34
2023-01-20T10:19:15.345Z,100984.12
2023-01-20T10:22:38.961Z,100985.48
2023-01-20T10:25:45.264Z,100994.09
2023-01-20T10:28:54.291Z,100986.02
2023-01-20T10:32:10.146Z,100978.30
2023-01-20T10:35:21.034Z,100985.61
2023-01-20T10:38:36.300Z,100978.52
2023-01-20T10:42:03.302Z,100982.01
2023-01-20T10:45:09.914Z,100983.94
2023-01-20T10:48:23.809Z,100978.06
2023-01-20T10:51:56.457Z,100982.37
2023-01-20T10:55:17.380Z,100971.34
2023-01-20T10:58:46.523Z,100972.55
2023-01-20T11:01:59.397Z,100966.13
2023-01-20T11:05:04.101Z,100970.67
2023-01-20T11:08:09.907Z,100964.81
2023-01-20T11:11:26.576Z,100956.30
2023-01-20T11:14:34.508Z,100961.92
2023-01-20T11:17:39.806Z,100951.89
2023-01-20T11:20:44.916Z,100957.27
2023-01-20T11:24:06.088Z,100952.52
2023-01-20T11:27:28.279Z,100952.88
2023-01-20T11:30:44.020Z,100945.64
2023-01-20T11:33:49.764Z,100949.17
2023-01-20T11:36:55.474Z,100951.43
2023-01-20T11:40:13.983Z,100941.22
2023-01-20T11:43:19.967Z,100942.59
2023-01-20T11:46:34.347Z,100937.63
2023-01-20T11:49:40.332Z,100940.36
2023-01-20T11:52:56.554Z,100943.14
2023-01-20T11:56:09.725Z,100935.12
2023-01-20T11:59:19.083Z,100930.12
2023-01-20T12:02:30.569Z,100931.39
2023-01-20T12:05:46.562Z,100932.47
2023-01-20T12:09:13.419Z,100927.80
2023-01-20T12:12:39.843Z,100929.23
2023-01-20T12:15:52.785Z,100941.28
2023-01-20T12:19:07.828Z,100932.28
2023-01-20T12:22:14.621Z,100932.52
2023-01-20T12:25:36.391Z,100937.89
2023-01-20T12:29:05.923Z,100932.94
2023-01-20T12:32:11.924Z,100935.41
2023-01-20T12:35:16.935Z,100932.42
2023-01-20T12:38:23.066Z,100944.04
2023-01-20T12:41:56.911Z,100936.20
2023-01-20T12:45:35.222Z,100944.04
2023-01-20T12:48:59.373Z,100947.97
2023-01-20T12:52:24.956Z,100950.16
2023-01-20T12:55:52.666Z,100952.77
2023-01-20T12:59:05.488Z,100961.72
2023-01-20T13:02:50.143Z,100969.67
2023-01-20T13:06:21.083Z,100962.94
2023-01-20T13:10:07.175Z,100957.95
2023-01-20T13:13:51.475Z,100961.73
2023-01-20T13:17:07.279Z,100968.98
2023-01-20T13:20:14.543Z,100966.25
2023-01-20T13:23:24.449Z,100961.70
2023-01-20T13:26:29.289Z,100969.30
2023-01-20T13:29:58.598Z,100959.20
2023-01-20T13:33:08.532Z,100962.69
2023-01-20T13:36:13.100Z,100966.23
2023-01-20T13:39:57.042Z,100962.59
2023-01-20T13:43:03.928Z,100954.55
2023-01-20T13:46:36.542Z,100960.02
2023-01-20T13:50:01.713Z,100945.50
2023-01-20T13:53:27.367Z,100956.27
2023-01-20T13:56:47.651Z,100949.39
2023-01-20T13:59:54.479Z,100954.48
2023-01-20T14:03:03.914Z,100956.88
2023-01-20T14:06:20.696Z,100965.11
2023-01-20T14:09:27.741Z,100967.98
2023-01-20T14:12:33.166Z,100959.59
2023-01-20T14:15:50.214Z,100963.53
2023-01-20T14:18:57.853Z,100973.92
2023-01-20T14:22:10.308Z,100960.76
2023-01-20T14:25:18.164Z,100974.11
2023-01-20T14:28:37.242Z,100981.02
2023-01-20T14:31:50.912Z,100985.76
2023-01-20T14:34:56.659Z,100984.60
2023-01-20T14:38:05.628Z,100993.20
2023-01-20T14:41:11.961Z,100994.38
2023-01-20T14:44:17.684Z,100997.42
2023-01-20T14:47:24.859Z,100997.47
2023-01-20T14:50:32.358Z,101002.28
2023-01-20T14:53:38.120Z,101001.83
2023-01-20T14:56:44.286Z,101013.36
2023-01-20T14:59:52.027Z,101012.18
2023-01-20T15:03:11.056Z,101020.35
2023-01-20T15:06:15.396Z,101028.28
2023-01-20T15:09:21.442Z,101022.77
2023-01-20T15:13:06.760Z,101024.03
2023-01-20T15:16:29.399Z,101023.16
2023-01-20T15:19:45.677Z,101019.53
2023-01-20T15:22:56.066Z,101015.94
2023-01-20T15:26:03.456Z,101018.69
2023-01-20T15:29:09.721Z,101024.72
2023-01-20T15:32:17.879Z,101033.38
2023-01-20T15:35:32.698Z,101031.04
2023-01-20T15:38:37.590Z,101034.87
2023-01-20T15:41:44.039Z,101038.69
2023-01-20T15:44:52.381Z,101039.67
2023-01-20T15:48:00.954Z,101039.17
2023-01-20T15:51:06.449Z,101044.72
2023-01-20T15:54:14.269Z,101046.69
2023-01-20T15:57:27.553Z,101047.94
2023-01-20T16:00:35.565Z,101048.55
2023-01-20T16:03:42.639Z,101046.81
2023-01-20T16:06:48.656Z,101052.23
2023-01-20T16:09:55.327Z,101052.22
2023-01-20T16:12:56.971Z,101043.48
2023-01-20T16:16:03.188Z,101041.74
2023-01-20T16:19:08.372Z,101050.45
2023-01-20T16:22:15.302Z,101057.23
2023-01-20T16:25:22.208Z,101048.86
2023-01-20T16:28:38.561Z,101052.56
2023-01-20T16:31:44.896Z,101055.27
2023-01-20T16:34:52.379Z,101048.74
2023-01-20T16:38:02.176Z,101055.73
2023-01-20T16:41:09.711Z,101063.85
2023-01-20T16:44:16.169Z,101063.49
2023-01-20T16:47:21.397Z,101066.80
2023-01-20T16:50:28.775Z,101066.09
2023-01-20T16:53:36.077Z,101066.56
2023-01-20T16:56:43.515Z,101068.91
2023-01-20T16:59:49.744Z,101069.99
2023-01-20T17:02:57.497Z,101073.55
2023-01-20T17:06:04.280Z,101074.89
2023-01-20T17:09:13.549Z,101077.95
2023-01-20T17:12:20.564Z,101090.59
2023-01-20T17:15:28.465Z,101082.81
2023-01-20T17:18:34.329Z,101076.16
2023-01-20T17:21:42.852Z,101076.88
2023-01-20T17:24:48.580Z,101071.81
2023-01-20T17:27:56.329Z,101069.47
2023-01-20T17:31:04.143Z,101069.70
2023-01-20T17:34:10.911Z,101077.69
2023-01-20T17:37:17.064Z,101073.47
2023-01-20T17:40:25.064Z,101072.99
2023-01-20T17:43:32.247Z,101078.88
2023-01-20T17:46:43.427Z,101082.07
2023-01-20T17:49:49.225Z,101071.36
2023-01-20T17:52:55.331Z,101076.77
2023-01-20T17:56:12.256Z,101079.48
2023-01-20T17:59:11.995Z,101085.72
2023-01-20T18:02:17.705Z,101077.83
2023-01-20T18:05:24.554Z,101083.11
2023-01-20T18:08:30.135Z,101081.40
2023-01-20T18:11:37.089Z,101085.77
2023-01-20T18:14:45.140Z,101082.81
2023-01-20T18:17:53.590Z,101084.39
2023-01-20T18:20:59.862Z,101084.23
2023-01-20T18:24:06.529Z,101087.92
2023-01-20T18:27:13.215Z,101094.33
2023-01-20T18:30:23.896Z,101089.34
2023-01-20T18:33:29.772Z,101084.91
2023-01-20T18:36:39.061Z,101086.75
2023-01-20T18:39:46.081Z,101079.14
2023-01-20T18:42:52.427Z,101079.14
2023-01-20T18:46:01.026Z,101079.03
2023-01-20T18:49:08.532Z,101080.74
2023-01-20T18:52:14.816Z,101079.67
2023-01-20T18:55:22.999Z,101075.92
2023-01-20T18:58:28.364Z,101079.73
2023-01-20T19:01:47.615Z,101069.02
2023-01-20T19:04:53.480Z,101068.77
2023-01-20T19:08:08.857Z,101064.66
2023-01-20T19:11:19.749Z,101063.77
2023-01-20T19:14:27.897Z,101061.17
2023-01-20T19:17:34.608Z,101055.99
2023-01-20T19:20:40.313Z,101059.98
2023-01-20T19:23:47.147Z,101055.05
2023-01-20T19:26:52.871Z,101057.40
2023-01-20T19:30:00.798Z,101070.27
2023-01-20T19:33:07.426Z,101049.96
2023-01-20T19:36:16.418Z,101073.05
2023-01-20T19:39:22.713Z,101084.94
2023-01-20T19:42:30.745Z,101071.81
2023-01-20T19:45:45.745Z,101077.22
2023-01-20T19:48:47.905Z,101081.86
2023-01-20T19:51:55.228Z,101084.68
2023-01-20T19:55:02.741Z,101087.86
2023-01-20T19:58:09.291Z,101094.73
2023-01-20T20:01:32.344Z,101089.32
2023-01-20T20:04:39.687Z,101101.70
2023-01-20T20:07:50.223Z,101093.12
2023-01-20T20:10:59.013Z,101101.23
2023-01-20T20:14:06.329Z,101101.23
2023-01-20T20:17:13.395Z,101110.58
2023-01-20T20:20:21.926Z,101107.29
2023-01-20T20:23:27.858Z,101112.08
2023-01-20T20:26:37.934Z,101116.02
2023-01-20T20:29:44.879Z,101110.14
2023-01-20T20:32:51.419Z,101115.06
2023-01-20T20:35:59.162Z,101118.95
2023-01-20T20:39:06.415Z,101123.77
2023-01-20T20:42:12.162Z,101118.10
2023-01-20T20:45:19.139Z,101114.52
2023-01-20T20:48:24.606Z,101118.91
2023-01-20T20:51:35.031Z,101115.33
2023-01-20T20:54:44.102Z,101109.16
2023-01-20T20:57:51.558Z,101116.03
2023-01-20T21:00:58.839Z,101114.31
2023-01-20T21:04:04.420Z,101113.44
2023-01-20T21:07:11.705Z,101113.44
2023-01-20T21:10:19.090Z,101115.08
2023-01-20T21:13:25.715Z,101106.23
2023-01-20T21:16:32.951Z,101115.22
2023-01-20T21:19:41.399Z,101121.87
2023-01-20T21:22:47.983Z,101121.76
2023-01-20T21:25:53.892Z,101119.05
2023-01-20T21:29:02.162Z,101124.90
2023-01-20T21:32:08.134Z,101120.59
2023-01-20T21:35:14.592Z,101124.53
2023-01-20T21:38:21.987Z,101120.59
2023-01-20T21:41:28.994Z,101121.94
2023-01-20T21:44:37.348Z,101119.83
2023-01-20T21:47:43.171Z,101131.41
2023-01-20T21:51:07.361Z,101120.08
2023-01-20T21:54:14.010Z,101127.93
2023-01-20T21:57:20.261Z,101127.72
2023-01-20T22:00:28.309Z,101122.89
2023-01-20T22:03:34.460Z,101129.10
2023-01-20T22:06:40.107Z,101127.27
2023-01-20T22:09:47.417Z,101128.88
2023-01-20T22:12:59.304Z,101122.02
2023-01-20T22:16:06.745Z,101134.84
2023-01-20T22:19:13.723Z,101125.02
2023-01-20T22:22:19.552Z,101124.36
2023-01-20T22:25:27.189Z,101123.59
2023-01-20T22:28:34.156Z,101118.30
2023-01-20T22:31:41.070Z,101118.14
2023-01-20T22:34:50.253Z,101113.73
2023-01-20T22:37:55.619Z,101122.23
2023-01-20T22:41:01.191Z,101127.75
2023-01-20T22:44:07.253Z,101128.25
2023-01-20T22:47:15.906Z,101119.75
2023-01-20T22:50:22.776Z,101120.52
2023-01-20T22:53:28.908Z,101114.34
2023-01-20T22:56:38.025Z,101113.50
2023-01-20T22:59:44.733Z,101113.28
2023-01-20T23:02:51.726Z,101109.97
2023-01-20T23:06:06.403Z,101109.86
2023-01-20T23:09:21.692Z,101109.02
2023-01-20T23:12:27.419Z,101106.20
2023-01-20T23:15:34.104Z,101102.91
2023-01-20T23:18:39.905Z,101102.41
2023-01-20T23:21:47.029Z,101105.00
2023-01-20T23:24:52.834Z,101105.00
2023-01-20T23:27:59.572Z,101104.41
2023-01-20T23:31:05.407Z,101104.27
2023-01-20T23:34:11.659Z,101101.37
2023-01-20T23:37:17.825Z,101104.30
2023-01-20T23:40:25.849Z,101103.31
2023-01-20T23:43:31.747Z,101111.93
2023-01-20T23:46:36.898Z,101118.40
2023-01-20T23:49:42.094Z,101117.63
2023-01-20T23:52:42.222Z,101124.81
2023-01-20T23:55:47.721Z,101129.48
2023-01-20T23:58:54.437Z,101122.80
